sensor_id;sensor_type;location;lat;lon;timestamp;temperature;humidity
37002;DHT22;22913;51.910;8.374;2023-02-19T00:00:08;9.90;99.90
37002;DHT22;22913;51.910;8.374;2023-02-19T00:02:53;9.80;99.90
37002;DHT22;22913;51.910;8.374;2023-02-19T00:05:42;9.80;99.90
37002;DHT22;22913;51.910;8.374;2023-02-19T00:08:29;9.80;99.90
37002;DHT22;22913;51.910;8.374;2023-02-19T00:11:16;9.80;99.90
37002;DHT22;22913;51.910;8.374;2023-02-19T00:14:03;9.80;99.90
37002;DHT22;22913;51.910;8.374;2023-02-19T00:16:49;9.80;99.90
37002;DHT22;22913;51.910;8.374;2023-02-19T00:19:34;9.80;99.90
37002;DHT22;22913;51.910;8.374;2023-02-19T00:22:22;9.80;99.90
37002;DHT22;22913;51.910;8.374;2023-02-19T00:25:07;9.80;99.90
37002;DHT22;22913;51.910;8.374;2023-02-19T00:27:53;9.80;99.90
37002;DHT22;22913;51.910;8.374;2023-02-19T00:30:38;9.80;99.90
37002;DHT22;22913;51.910;8.374;2023-02-19T00:33:24;9.80;99.90
37002;DHT22;22913;51.910;8.374;2023-02-19T00:36:12;9.90;99.90
37002;DHT22;22913;51.910;8.374;2023-02-19T00:38:59;9.90;99.90
37002;DHT22;22913;51.910;8.374;2023-02-19T00:41:44;9.90;99.90
37002;DHT22;22913;51.910;8.374;2023-02-19T00:44:30;10.00;99.90
37002;DHT22;22913;51.910;8.374;2023-02-19T00:47:16;10.00;99.90
37002;DHT22;22913;51.910;8.374;2023-02-19T00:50:01;10.00;99.90
37002;DHT22;22913;51.910;8.374;2023-02-19T00:52:47;10.00;99.90
37002;DHT22;22913;51.910;8.374;2023-02-19T00:55:34;10.00;99.90
37002;DHT22;22913;51.910;8.374;2023-02-19T00:58:19;10.00;99.90
37002;DHT22;22913;51.910;8.374;2023-02-19T01:01:05;10.10;99.90
37002;DHT22;22913;51.910;8.374;2023-02-19T01:03:51;10.00;99.90
37002;DHT22;22913;51.910;8.374;2023-02-19T01:06:37;10.10;99.90
37002;DHT22;22913;51.910;8.374;2023-02-19T01:09:23;10.00;99.90
37002;DHT22;22913;51.910;8.374;2023-02-19T01:12:10;10.10;99.90
37002;DHT22;22913;51.910;8.374;2023-02-19T01:14:55;10.10;99.90
37002;DHT22;22913;51.910;8.374;2023-02-19T01:17:41;10.10;99.90
37002;DHT22;22913;51.910;8.374;2023-02-19T01:20:27;10.10;99.90
37002;DHT22;22913;51.910;8.374;2023-02-19T01:23:13;10.10;99.90
37002;DHT22;22913;51.910;8.374;2023-02-19T01:25:59;10.10;99.90
37002;DHT22;22913;51.910;8.374;2023-02-19T01:28:46;10.10;99.90
37002;DHT22;22913;51.910;8.374;2023-02-19T01:31:32;10.20;99.90
37002;DHT22;22913;51.910;8.374;2023-02-19T01:34:18;10.10;99.90
37002;DHT22;22913;51.910;8.374;2023-02-19T01:37:04;10.20;99.90
37002;DHT22;22913;51.910;8.374;2023-02-19T01:39:54;10.20;99.90
37002;DHT22;22913;51.910;8.374;2023-02-19T01:42:42;10.20;99.90
37002;DHT22;22913;51.910;8.374;2023-02-19T01:45:31;10.20;99.90
37002;DHT22;22913;51.910;8.374;2023-02-19T01:48:18;10.20;99.90
37002;DHT22;22913;51.910;8.374;2023-02-19T01:51:08;10.20;99.90
37002;DHT22;22913;51.910;8.374;2023-02-19T01:53:59;10.20;99.90
37002;DHT22;22913;51.910;8.374;2023-02-19T01:56:48;10.20;99.90
37002;DHT22;22913;51.910;8.374;2023-02-19T01:59:34;10.20;99.90
37002;DHT22;22913;51.910;8.374;2023-02-19T02:02:22;10.20;99.90
37002;DHT22;22913;51.910;8.374;2023-02-19T02:05:18;10.30;99.90
37002;DHT22;22913;51.910;8.374;2023-02-19T02:08:06;10.20;99.90
37002;DHT22;22913;51.910;8.374;2023-02-19T02:11:09;10.30;99.90
37002;DHT22;22913;51.910;8.374;2023-02-19T02:13:55;10.20;99.90
37002;DHT22;22913;51.910;8.374;2023-02-19T02:16:47;10.20;99.90
37002;DHT22;22913;51.910;8.374;2023-02-19T02:19:55;10.20;99.90
37002;DHT22;22913;51.910;8.374;2023-02-19T02:22:48;10.30;99.90
37002;DHT22;22913;51.910;8.374;2023-02-19T02:25:57;10.30;99.90
37002;DHT22;22913;51.910;8.374;2023-02-19T02:29:30;10.30;99.90
37002;DHT22;22913;51.910;8.374;2023-02-19T02:32:24;10.20;99.90
37002;DHT22;22913;51.910;8.374;2023-02-19T02:35:12;10.20;99.90
37002;DHT22;22913;51.910;8.374;2023-02-19T02:38:05;10.20;99.90
37002;DHT22;22913;51.910;8.374;2023-02-19T02:40:53;10.20;99.90
37002;DHT22;22913;51.910;8.374;2023-02-19T02:43:39;10.20;99.90
37002;DHT22;22913;51.910;8.374;2023-02-19T02:46:29;10.10;99.90
37002;DHT22;22913;51.910;8.374;2023-02-19T02:49:21;10.10;99.90
37002;DHT22;22913;51.910;8.374;2023-02-19T02:52:08;10.10;99.90
37002;DHT22;22913;51.910;8.374;2023-02-19T02:55:19;10.10;99.90
37002;DHT22;22913;51.910;8.374;2023-02-19T02:58:05;10.10;99.90
37002;DHT22;22913;51.910;8.374;2023-02-19T03:00:55;10.10;99.90
37002;DHT22;22913;51.910;8.374;2023-02-19T03:04:02;10.10;99.90
37002;DHT22;22913;51.910;8.374;2023-02-19T03:06:51;10.10;99.90
37002;DHT22;22913;51.910;8.374;2023-02-19T03:09:41;10.10;99.90
37002;DHT22;22913;51.910;8.374;2023-02-19T03:12:28;10.10;99.90
37002;DHT22;22913;51.910;8.374;2023-02-19T03:15:36;10.00;99.90
37002;DHT22;22913;51.910;8.374;2023-02-19T03:18:41;10.00;99.90
37002;DHT22;22913;51.910;8.374;2023-02-19T03:21:51;10.00;99.90
37002;DHT22;22913;51.910;8.374;2023-02-19T03:24:42;10.10;99.90
37002;DHT22;22913;51.910;8.374;2023-02-19T03:27:53;10.00;99.90
37002;DHT22;22913;51.910;8.374;2023-02-19T03:30:43;10.00;99.90
37002;DHT22;22913;51.910;8.374;2023-02-19T03:33:31;10.00;99.90
37002;DHT22;22913;51.910;8.374;2023-02-19T03:36:18;10.00;99.90
37002;DHT22;22913;51.910;8.374;2023-02-19T03:39:14;10.00;99.90
37002;DHT22;22913;51.910;8.374;2023-02-19T03:42:06;10.00;99.90
37002;DHT22;22913;51.910;8.374;2023-02-19T03:45:05;10.00;99.90
37002;DHT22;22913;51.910;8.374;2023-02-19T03:48:05;9.90;99.90
37002;DHT22;22913;51.910;8.374;2023-02-19T03:51:01;9.90;99.90
37002;DHT22;22913;51.910;8.374;2023-02-19T03:53:52;9.80;99.90
37002;DHT22;22913;51.910;8.374;2023-02-19T03:56:46;9.90;99.90
37002;DHT22;22913;51.910;8.374;2023-02-19T03:59:38;9.90;99.90
37002;DHT22;22913;51.910;8.374;2023-02-19T04:02:28;9.90;99.90
37002;DHT22;22913;51.910;8.374;2023-02-19T04:05:20;9.90;99.90
37002;DHT22;22913;51.910;8.374;2023-02-19T04:08:10;9.90;99.90
37002;DHT22;22913;51.910;8.374;2023-02-19T04:10:57;9.90;99.90
37002;DHT22;22913;51.910;8.374;2023-02-19T04:13:48;9.90;99.90
37002;DHT22;22913;51.910;8.374;2023-02-19T04:16:38;9.90;99.90
37002;DHT22;22913;51.910;8.374;2023-02-19T04:19:26;9.90;99.90
37002;DHT22;22913;51.910;8.374;2023-02-19T04:22:13;9.80;99.90
37002;DHT22;22913;51.910;8.374;2023-02-19T04:25:00;9.80;99.90
37002;DHT22;22913;51.910;8.374;2023-02-19T04:27:46;9.80;99.90
37002;DHT22;22913;51.910;8.374;2023-02-19T04:30:35;9.80;99.90
37002;DHT22;22913;51.910;8.374;2023-02-19T04:33:21;9.80;99.90
37002;DHT22;22913;51.910;8.374;2023-02-19T04:36:09;9.80;99.90
37002;DHT22;22913;51.910;8.374;2023-02-19T04:38:55;9.70;99.90
37002;DHT22;22913;51.910;8.374;2023-02-19T04:41:41;9.80;99.90
37002;DHT22;22913;51.910;8.374;2023-02-19T04:44:27;9.80;99.90
37002;DHT22;22913;51.910;8.374;2023-02-19T04:47:14;9.70;99.90
37002;DHT22;22913;51.910;8.374;2023-02-19T04:50:04;9.70;99.90
37002;DHT22;22913;51.910;8.374;2023-02-19T04:52:50;9.70;99.90
37002;DHT22;22913;51.910;8.374;2023-02-19T04:55:37;9.70;99.90
37002;DHT22;22913;51.910;8.374;2023-02-19T04:58:23;9.70;99.90
37002;DHT22;22913;51.910;8.374;2023-02-19T05:01:09;9.70;99.90
37002;DHT22;22913;51.910;8.374;2023-02-19T05:03:56;9.70;99.90
37002;DHT22;22913;51.910;8.374;2023-02-19T05:06:42;9.70;99.90
37002;DHT22;22913;51.910;8.374;2023-02-19T05:09:27;9.70;99.90
37002;DHT22;22913;51.910;8.374;2023-02-19T05:12:13;9.70;99.90
37002;DHT22;22913;51.910;8.374;2023-02-19T05:14:59;9.70;99.90
37002;DHT22;22913;51.910;8.374;2023-02-19T05:17:45;9.70;99.90
37002;DHT22;22913;51.910;8.374;2023-02-19T05:20:36;9.70;99.90
37002;DHT22;22913;51.910;8.374;2023-02-19T05:23:22;9.70;99.90
37002;DHT22;22913;51.910;8.374;2023-02-19T05:26:11;9.70;99.90
37002;DHT22;22913;51.910;8.374;2023-02-19T05:28:56;9.70;99.90
37002;DHT22;22913;51.910;8.374;2023-02-19T05:31:42;9.70;99.90
37002;DHT22;22913;51.910;8.374;2023-02-19T05:34:28;9.70;99.90
37002;DHT22;22913;51.910;8.374;2023-02-19T05:37:17;9.70;99.90
37002;DHT22;22913;51.910;8.374;2023-02-19T05:40:04;9.70;99.90
37002;DHT22;22913;51.910;8.374;2023-02-19T05:42:49;9.70;99.90
37002;DHT22;22913;51.910;8.374;2023-02-19T05:45:35;9.70;99.90
37002;DHT22;22913;51.910;8.374;2023-02-19T05:48:21;9.70;99.90
37002;DHT22;22913;51.910;8.374;2023-02-19T05:51:10;9.60;99.90
37002;DHT22;22913;51.910;8.374;2023-02-19T05:53:58;9.60;99.90
37002;DHT22;22913;51.910;8.374;2023-02-19T05:56:43;9.50;99.90
37002;DHT22;22913;51.910;8.374;2023-02-19T05:59:29;9.60;99.90
37002;DHT22;22913;51.910;8.374;2023-02-19T06:02:15;9.60;99.90
37002;DHT22;22913;51.910;8.374;2023-02-19T06:05:01;9.60;99.90
37002;DHT22;22913;51.910;8.374;2023-02-19T06:07:47;9.50;99.90
37002;DHT22;22913;51.910;8.374;2023-02-19T06:10:37;9.50;99.90
37002;DHT22;22913;51.910;8.374;2023-02-19T06:13:24;9.50;99.90
37002;DHT22;22913;51.910;8.374;2023-02-19T06:16:11;9.50;99.90
37002;DHT22;22913;51.910;8.374;2023-02-19T06:18:57;9.50;99.90
37002;DHT22;22913;51.910;8.374;2023-02-19T06:21:43;9.50;99.90
37002;DHT22;22913;51.910;8.374;2023-02-19T06:24:29;9.50;99.90
37002;DHT22;22913;51.910;8.374;2023-02-19T06:27:17;9.40;99.90
37002;DHT22;22913;51.910;8.374;2023-02-19T06:30:04;9.50;99.90
37002;DHT22;22913;51.910;8.374;2023-02-19T06:32:51;9.50;99.90
37002;DHT22;22913;51.910;8.374;2023-02-19T06:35:37;9.50;99.90
37002;DHT22;22913;51.910;8.374;2023-02-19T06:38:23;9.40;99.90
37002;DHT22;22913;51.910;8.374;2023-02-19T06:41:09;9.40;99.90
37002;DHT22;22913;51.910;8.374;2023-02-19T06:43:57;9.50;99.90
37002;DHT22;22913;51.910;8.374;2023-02-19T06:46:43;9.50;99.90
37002;DHT22;22913;51.910;8.374;2023-02-19T06:49:28;9.50;99.90
37002;DHT22;22913;51.910;8.374;2023-02-19T06:52:14;9.40;99.90
37002;DHT22;22913;51.910;8.374;2023-02-19T06:55:00;9.40;99.90
37002;DHT22;22913;51.910;8.374;2023-02-19T06:57:46;9.40;99.90
37002;DHT22;22913;51.910;8.374;2023-02-19T07:00:33;9.40;99.90
37002;DHT22;22913;51.910;8.374;2023-02-19T07:03:20;9.50;99.90
37002;DHT22;22913;51.910;8.374;2023-02-19T07:06:06;9.50;99.90
37002;DHT22;22913;51.910;8.374;2023-02-19T07:08:53;9.50;99.90
37002;DHT22;22913;51.910;8.374;2023-02-19T07:11:39;9.50;99.90
37002;DHT22;22913;51.910;8.374;2023-02-19T07:14:25;9.50;99.90
37002;DHT22;22913;51.910;8.374;2023-02-19T07:17:13;9.50;99.90
37002;DHT22;22913;51.910;8.374;2023-02-19T07:19:58;9.40;99.90
37002;DHT22;22913;51.910;8.374;2023-02-19T07:22:44;9.50;99.90
37002;DHT22;22913;51.910;8.374;2023-02-19T07:25:30;9.40;99.90
37002;DHT22;22913;51.910;8.374;2023-02-19T07:28:15;9.40;99.90
37002;DHT22;22913;51.910;8.374;2023-02-19T07:31:02;9.50;99.90
37002;DHT22;22913;51.910;8.374;2023-02-19T07:33:50;9.10;99.90
37002;DHT22;22913;51.910;8.374;2023-02-19T07:36:35;9.10;99.90
37002;DHT22;22913;51.910;8.374;2023-02-19T07:39:21;9.00;99.90
37002;DHT22;22913;51.910;8.374;2023-02-19T07:42:07;8.70;99.90
37002;DHT22;22913;51.910;8.374;2023-02-19T07:44:52;8.60;99.90
37002;DHT22;22913;51.910;8.374;2023-02-19T07:47:38;8.40;99.90
37002;DHT22;22913;51.910;8.374;2023-02-19T07:50:25;8.30;99.90
37002;DHT22;22913;51.910;8.374;2023-02-19T07:53:11;8.20;99.90
37002;DHT22;22913;51.910;8.374;2023-02-19T07:55:58;8.30;99.90
37002;DHT22;22913;51.910;8.374;2023-02-19T07:58:44;8.30;99.90
37002;DHT22;22913;51.910;8.374;2023-02-19T08:01:30;8.30;99.90
37002;DHT22;22913;51.910;8.374;2023-02-19T08:04:33;8.30;99.90
37002;DHT22;22913;51.910;8.374;2023-02-19T08:07:20;8.20;99.90
37002;DHT22;22913;51.910;8.374;2023-02-19T08:10:07;8.10;99.90
37002;DHT22;22913;51.910;8.374;2023-02-19T08:13:11;8.20;99.90
37002;DHT22;22913;51.910;8.374;2023-02-19T08:16:12;8.10;99.90
37002;DHT22;22913;51.910;8.374;2023-02-19T08:18:59;8.20;99.90
37002;DHT22;22913;51.910;8.374;2023-02-19T08:21:45;8.20;99.90
37002;DHT22;22913;51.910;8.374;2023-02-19T08:24:32;8.20;99.90
37002;DHT22;22913;51.910;8.374;2023-02-19T08:27:17;8.20;99.90
37002;DHT22;22913;51.910;8.374;2023-02-19T08:30:03;8.20;99.90
37002;DHT22;22913;51.910;8.374;2023-02-19T08:32:49;8.10;99.90
37002;DHT22;22913;51.910;8.374;2023-02-19T08:35:35;8.20;99.90
37002;DHT22;22913;51.910;8.374;2023-02-19T08:38:20;8.20;99.90
37002;DHT22;22913;51.910;8.374;2023-02-19T08:41:09;8.20;99.90
37002;DHT22;22913;51.910;8.374;2023-02-19T08:43:55;8.30;99.90
37002;DHT22;22913;51.910;8.374;2023-02-19T08:46:41;8.30;99.90
37002;DHT22;22913;51.910;8.374;2023-02-19T08:49:27;8.40;99.90
37002;DHT22;22913;51.910;8.374;2023-02-19T08:52:12;8.40;99.90
37002;DHT22;22913;51.910;8.374;2023-02-19T08:54:58;8.40;99.90
37002;DHT22;22913;51.910;8.374;2023-02-19T08:57:45;8.40;99.90
37002;DHT22;22913;51.910;8.374;2023-02-19T09:00:30;8.40;99.90
37002;DHT22;22913;51.910;8.374;2023-02-19T09:03:16;8.40;99.90
37002;DHT22;22913;51.910;8.374;2023-02-19T09:06:03;8.40;99.90
37002;DHT22;22913;51.910;8.374;2023-02-19T09:08:48;8.40;99.90
37002;DHT22;22913;51.910;8.374;2023-02-19T09:11:37;8.30;99.90
37002;DHT22;22913;51.910;8.374;2023-02-19T09:14:24;8.30;99.90
37002;DHT22;22913;51.910;8.374;2023-02-19T09:17:10;8.40;99.90
37002;DHT22;22913;51.910;8.374;2023-02-19T09:19:56;8.40;99.90
37002;DHT22;22913;51.910;8.374;2023-02-19T09:22:42;8.40;99.90
37002;DHT22;22913;51.910;8.374;2023-02-19T09:25:28;8.50;99.90
37002;DHT22;22913;51.910;8.374;2023-02-19T09:28:14;8.50;99.90
37002;DHT22;22913;51.910;8.374;2023-02-19T09:31:04;8.50;99.90
37002;DHT22;22913;51.910;8.374;2023-02-19T09:33:50;8.50;99.90
37002;DHT22;22913;51.910;8.374;2023-02-19T09:36:36;8.50;99.90
37002;DHT22;22913;51.910;8.374;2023-02-19T09:39:22;8.50;99.90
37002;DHT22;22913;51.910;8.374;2023-02-19T09:42:11;8.40;99.90
37002;DHT22;22913;51.910;8.374;2023-02-19T09:45:00;8.60;99.90
37002;DHT22;22913;51.910;8.374;2023-02-19T09:47:48;8.60;99.90
37002;DHT22;22913;51.910;8.374;2023-02-19T09:50:37;8.70;99.90
37002;DHT22;22913;51.910;8.374;2023-02-19T09:53:26;8.90;99.90
37002;DHT22;22913;51.910;8.374;2023-02-19T09:56:12;9.00;99.90
37002;DHT22;22913;51.910;8.374;2023-02-19T09:58:58;8.90;99.90
37002;DHT22;22913;51.910;8.374;2023-02-19T10:01:46;8.80;99.90
37002;DHT22;22913;51.910;8.374;2023-02-19T10:04:39;8.70;99.90
37002;DHT22;22913;51.910;8.374;2023-02-19T10:07:32;8.70;99.90
37002;DHT22;22913;51.910;8.374;2023-02-19T10:10:27;8.60;99.90
37002;DHT22;22913;51.910;8.374;2023-02-19T10:13:18;8.60;99.90
37002;DHT22;22913;51.910;8.374;2023-02-19T10:16:05;8.60;99.90
37002;DHT22;22913;51.910;8.374;2023-02-19T10:18:54;8.50;99.90
37002;DHT22;22913;51.910;8.374;2023-02-19T10:21:42;8.50;99.90
37002;DHT22;22913;51.910;8.374;2023-02-19T10:24:29;8.50;99.90
37002;DHT22;22913;51.910;8.374;2023-02-19T10:27:15;8.50;99.90
37002;DHT22;22913;51.910;8.374;2023-02-19T10:30:00;8.70;99.90
37002;DHT22;22913;51.910;8.374;2023-02-19T10:32:58;8.80;99.90
37002;DHT22;22913;51.910;8.374;2023-02-19T10:35:53;8.90;99.90
37002;DHT22;22913;51.910;8.374;2023-02-19T10:38:45;9.00;99.90
37002;DHT22;22913;51.910;8.374;2023-02-19T10:41:31;9.20;99.90
37002;DHT22;22913;51.910;8.374;2023-02-19T10:44:20;9.20;99.90
37002;DHT22;22913;51.910;8.374;2023-02-19T10:47:05;9.40;99.90
37002;DHT22;22913;51.910;8.374;2023-02-19T10:49:52;9.50;99.90
37002;DHT22;22913;51.910;8.374;2023-02-19T10:52:39;9.60;99.90
37002;DHT22;22913;51.910;8.374;2023-02-19T10:55:30;9.60;99.90
37002;DHT22;22913;51.910;8.374;2023-02-19T10:58:22;9.60;99.90
37002;DHT22;22913;51.910;8.374;2023-02-19T11:01:17;9.70;99.90
37002;DHT22;22913;51.910;8.374;2023-02-19T11:04:15;9.80;99.90
37002;DHT22;22913;51.910;8.374;2023-02-19T11:07:07;9.90;99.90
37002;DHT22;22913;51.910;8.374;2023-02-19T11:09:53;9.90;99.90
37002;DHT22;22913;51.910;8.374;2023-02-19T11:12:41;9.90;99.90
37002;DHT22;22913;51.910;8.374;2023-02-19T11:15:33;9.90;99.90
37002;DHT22;22913;51.910;8.374;2023-02-19T11:18:21;9.80;99.90
37002;DHT22;22913;51.910;8.374;2023-02-19T11:21:23;9.70;99.90
37002;DHT22;22913;51.910;8.374;2023-02-19T11:24:22;9.70;99.90
37002;DHT22;22913;51.910;8.374;2023-02-19T11:27:17;9.70;99.90
37002;DHT22;22913;51.910;8.374;2023-02-19T11:30:32;9.70;99.90
37002;DHT22;22913;51.910;8.374;2023-02-19T11:33:23;9.60;99.90
37002;DHT22;22913;51.910;8.374;2023-02-19T11:36:35;9.60;99.90
37002;DHT22;22913;51.910;8.374;2023-02-19T11:39:26;9.80;99.90
37002;DHT22;22913;51.910;8.374;2023-02-19T11:42:38;10.00;99.90
37002;DHT22;22913;51.910;8.374;2023-02-19T11:45:32;10.40;99.90
37002;DHT22;22913;51.910;8.374;2023-02-19T11:48:28;11.20;99.90
37002;DHT22;22913;51.910;8.374;2023-02-19T11:51:46;12.20;99.90
37002;DHT22;22913;51.910;8.374;2023-02-19T11:54:44;13.00;99.90
37002;DHT22;22913;51.910;8.374;2023-02-19T11:57:39;13.20;99.90
37002;DHT22;22913;51.910;8.374;2023-02-19T12:00:27;13.40;99.90
37002;DHT22;22913;51.910;8.374;2023-02-19T12:03:30;13.50;99.90
37002;DHT22;22913;51.910;8.374;2023-02-19T12:06:24;13.60;99.90
37002;DHT22;22913;51.910;8.374;2023-02-19T12:09:21;13.60;99.90
37002;DHT22;22913;51.910;8.374;2023-02-19T12:12:34;13.80;99.90
37002;DHT22;22913;51.910;8.374;2023-02-19T12:15:38;13.70;99.90
37002;DHT22;22913;51.910;8.374;2023-02-19T12:25:24;13.00;99.90
37002;DHT22;22913;51.910;8.374;2023-02-19T12:28:34;12.80;99.90
37002;DHT22;22913;51.910;8.374;2023-02-19T12:31:39;12.70;99.90
37002;DHT22;22913;51.910;8.374;2023-02-19T12:38:02;12.80;99.90
37002;DHT22;22913;51.910;8.374;2023-02-19T12:41:17;12.70;99.90
37002;DHT22;22913;51.910;8.374;2023-02-19T12:44:10;12.70;99.90
37002;DHT22;22913;51.910;8.374;2023-02-19T12:46:59;12.50;99.90
37002;DHT22;22913;51.910;8.374;2023-02-19T12:49:49;12.40;99.90
37002;DHT22;22913;51.910;8.374;2023-02-19T12:52:42;12.30;99.90
37002;DHT22;22913;51.910;8.374;2023-02-19T12:55:34;12.50;99.90
37002;DHT22;22913;51.910;8.374;2023-02-19T12:58:27;12.70;99.90
37002;DHT22;22913;51.910;8.374;2023-02-19T13:01:17;12.70;99.90
37002;DHT22;22913;51.910;8.374;2023-02-19T13:04:23;12.80;99.90
37002;DHT22;22913;51.910;8.374;2023-02-19T13:07:12;12.80;99.90
37002;DHT22;22913;51.910;8.374;2023-02-19T13:10:02;12.80;99.90
37002;DHT22;22913;51.910;8.374;2023-02-19T13:12:52;12.80;99.90
37002;DHT22;22913;51.910;8.374;2023-02-19T13:15:41;12.90;99.90
37002;DHT22;22913;51.910;8.374;2023-02-19T13:18:31;13.00;99.90
37002;DHT22;22913;51.910;8.374;2023-02-19T13:21:21;13.00;99.90
37002;DHT22;22913;51.910;8.374;2023-02-19T13:24:29;13.00;99.90
37002;DHT22;22913;51.910;8.374;2023-02-19T13:27:31;13.00;99.90
37002;DHT22;22913;51.910;8.374;2023-02-19T13:30:32;13.10;99.90
37002;DHT22;22913;51.910;8.374;2023-02-19T13:33:32;13.00;99.90
37002;DHT22;22913;51.910;8.374;2023-02-19T13:36:23;13.00;99.90
37002;DHT22;22913;51.910;8.374;2023-02-19T13:39:12;13.00;99.90
37002;DHT22;22913;51.910;8.374;2023-02-19T13:41:59;12.90;99.90
37002;DHT22;22913;51.910;8.374;2023-02-19T13:44:47;12.80;99.90
37002;DHT22;22913;51.910;8.374;2023-02-19T13:47:57;12.80;99.90
37002;DHT22;22913;51.910;8.374;2023-02-19T13:50:43;12.70;99.90
37002;DHT22;22913;51.910;8.374;2023-02-19T13:53:48;12.70;99.90
37002;DHT22;22913;51.910;8.374;2023-02-19T13:56:36;12.60;99.90
37002;DHT22;22913;51.910;8.374;2023-02-19T13:59:33;12.60;99.90
37002;DHT22;22913;51.910;8.374;2023-02-19T14:02:30;12.60;99.90
37002;DHT22;22913;51.910;8.374;2023-02-19T14:05:55;12.30;99.90
37002;DHT22;22913;51.910;8.374;2023-02-19T14:08:56;12.30;99.90
37002;DHT22;22913;51.910;8.374;2023-02-19T14:12:03;12.10;99.90
37002;DHT22;22913;51.910;8.374;2023-02-19T14:14:49;11.90;99.90
37002;DHT22;22913;51.910;8.374;2023-02-19T14:17:38;11.80;99.90
37002;DHT22;22913;51.910;8.374;2023-02-19T14:20:46;11.80;99.90
37002;DHT22;22913;51.910;8.374;2023-02-19T14:23:31;11.60;99.90
37002;DHT22;22913;51.910;8.374;2023-02-19T14:26:18;11.60;99.90
37002;DHT22;22913;51.910;8.374;2023-02-19T14:29:06;11.50;99.90
37002;DHT22;22913;51.910;8.374;2023-02-19T14:31:54;11.40;99.90
37002;DHT22;22913;51.910;8.374;2023-02-19T14:34:43;11.30;99.90
37002;DHT22;22913;51.910;8.374;2023-02-19T14:37:30;11.40;99.90
37002;DHT22;22913;51.910;8.374;2023-02-19T14:40:19;11.30;99.90
37002;DHT22;22913;51.910;8.374;2023-02-19T14:43:05;11.30;99.90
37002;DHT22;22913;51.910;8.374;2023-02-19T14:45:57;11.20;99.90
37002;DHT22;22913;51.910;8.374;2023-02-19T14:48:46;11.20;99.90
37002;DHT22;22913;51.910;8.374;2023-02-19T14:51:35;11.20;99.90
37002;DHT22;22913;51.910;8.374;2023-02-19T14:54:38;11.00;99.90
37002;DHT22;22913;51.910;8.374;2023-02-19T14:57:28;10.80;99.90
37002;DHT22;22913;51.910;8.374;2023-02-19T15:00:22;10.80;99.90
37002;DHT22;22913;51.910;8.374;2023-02-19T15:03:24;10.70;99.90
37002;DHT22;22913;51.910;8.374;2023-02-19T15:06:12;10.60;99.90
37002;DHT22;22913;51.910;8.374;2023-02-19T15:09:03;10.60;99.90
37002;DHT22;22913;51.910;8.374;2023-02-19T15:11:51;10.60;99.90
37002;DHT22;22913;51.910;8.374;2023-02-19T15:14:38;10.50;99.90
37002;DHT22;22913;51.910;8.374;2023-02-19T15:17:26;10.60;99.90
37002;DHT22;22913;51.910;8.374;2023-02-19T15:20:16;10.50;99.90
37002;DHT22;22913;51.910;8.374;2023-02-19T15:23:04;10.30;99.90
37002;DHT22;22913;51.910;8.374;2023-02-19T15:25:51;10.10;99.90
37002;DHT22;22913;51.910;8.374;2023-02-19T15:28:38;9.90;99.90
37002;DHT22;22913;51.910;8.374;2023-02-19T15:31:23;9.80;99.90
37002;DHT22;22913;51.910;8.374;2023-02-19T15:34:14;9.70;99.90
37002;DHT22;22913;51.910;8.374;2023-02-19T15:37:02;9.70;99.90
37002;DHT22;22913;51.910;8.374;2023-02-19T15:39:49;9.70;99.90
37002;DHT22;22913;51.910;8.374;2023-02-19T15:42:36;9.60;99.90
37002;DHT22;22913;51.910;8.374;2023-02-19T15:45:26;9.50;99.90
37002;DHT22;22913;51.910;8.374;2023-02-19T15:48:16;9.40;99.90
37002;DHT22;22913;51.910;8.374;2023-02-19T15:51:07;9.50;99.90
37002;DHT22;22913;51.910;8.374;2023-02-19T15:53:57;9.50;99.90
37002;DHT22;22913;51.910;8.374;2023-02-19T15:56:48;9.70;99.90
37002;DHT22;22913;51.910;8.374;2023-02-19T15:59:38;9.70;99.90
37002;DHT22;22913;51.910;8.374;2023-02-19T16:02:27;9.60;99.90
37002;DHT22;22913;51.910;8.374;2023-02-19T16:05:21;9.70;99.90
37002;DHT22;22913;51.910;8.374;2023-02-19T16:08:16;9.70;99.90
37002;DHT22;22913;51.910;8.374;2023-02-19T16:11:04;9.60;99.90
37002;DHT22;22913;51.910;8.374;2023-02-19T16:13:50;9.60;99.90
37002;DHT22;22913;51.910;8.374;2023-02-19T16:16:38;9.50;99.90
37002;DHT22;22913;51.910;8.374;2023-02-19T16:19:27;9.40;99.90
37002;DHT22;22913;51.910;8.374;2023-02-19T16:22:16;9.30;99.90
37002;DHT22;22913;51.910;8.374;2023-02-19T16:25:05;9.20;99.90
37002;DHT22;22913;51.910;8.374;2023-02-19T16:27:51;9.10;99.90
37002;DHT22;22913;51.910;8.374;2023-02-19T16:30:38;9.20;99.90
37002;DHT22;22913;51.910;8.374;2023-02-19T16:33:38;9.10;99.90
37002;DHT22;22913;51.910;8.374;2023-02-19T16:36:34;9.00;99.90
37002;DHT22;22913;51.910;8.374;2023-02-19T16:39:24;8.90;99.90
37002;DHT22;22913;51.910;8.374;2023-02-19T16:42:13;8.90;99.90
37002;DHT22;22913;51.910;8.374;2023-02-19T16:44:59;8.90;99.90
37002;DHT22;22913;51.910;8.374;2023-02-19T16:47:44;9.00;99.90
37002;DHT22;22913;51.910;8.374;2023-02-19T16:50:31;9.00;99.90
37002;DHT22;22913;51.910;8.374;2023-02-19T16:53:20;8.90;99.90
37002;DHT22;22913;51.910;8.374;2023-02-19T16:56:12;8.80;99.90
37002;DHT22;22913;51.910;8.374;2023-02-19T16:59:01;8.70;99.90
37002;DHT22;22913;51.910;8.374;2023-02-19T17:01:47;8.70;99.90
37002;DHT22;22913;51.910;8.374;2023-02-19T17:04:33;8.60;99.90
37002;DHT22;22913;51.910;8.374;2023-02-19T17:07:19;8.60;99.90
37002;DHT22;22913;51.910;8.374;2023-02-19T17:10:08;8.70;99.90
37002;DHT22;22913;51.910;8.374;2023-02-19T17:12:55;8.50;99.90
37002;DHT22;22913;51.910;8.374;2023-02-19T17:15:40;8.40;99.90
37002;DHT22;22913;51.910;8.374;2023-02-19T17:18:26;8.50;99.90
37002;DHT22;22913;51.910;8.374;2023-02-19T17:21:14;8.50;99.90
37002;DHT22;22913;51.910;8.374;2023-02-19T17:24:00;8.50;99.90
37002;DHT22;22913;51.910;8.374;2023-02-19T17:26:48;8.50;99.90
37002;DHT22;22913;51.910;8.374;2023-02-19T17:29:33;8.40;99.90
37002;DHT22;22913;51.910;8.374;2023-02-19T17:32:20;8.30;99.90
37002;DHT22;22913;51.910;8.374;2023-02-19T17:35:06;8.30;99.90
37002;DHT22;22913;51.910;8.374;2023-02-19T17:37:52;8.30;99.90
37002;DHT22;22913;51.910;8.374;2023-02-19T17:40:37;8.30;99.90
37002;DHT22;22913;51.910;8.374;2023-02-19T17:43:24;8.20;99.90
37002;DHT22;22913;51.910;8.374;2023-02-19T17:46:13;8.10;99.90
37002;DHT22;22913;51.910;8.374;2023-02-19T17:48:59;8.10;99.90
37002;DHT22;22913;51.910;8.374;2023-02-19T17:51:45;8.10;99.90
37002;DHT22;22913;51.910;8.374;2023-02-19T17:54:31;8.00;99.90
37002;DHT22;22913;51.910;8.374;2023-02-19T17:57:17;8.10;99.90
37002;DHT22;22913;51.910;8.374;2023-02-19T18:00:05;8.10;99.90
37002;DHT22;22913;51.910;8.374;2023-02-19T18:02:51;8.10;99.90
37002;DHT22;22913;51.910;8.374;2023-02-19T18:05:37;8.10;99.90
37002;DHT22;22913;51.910;8.374;2023-02-19T18:08:22;8.00;99.90
37002;DHT22;22913;51.910;8.374;2023-02-19T18:11:08;8.00;99.90
37002;DHT22;22913;51.910;8.374;2023-02-19T18:13:53;8.00;99.90